createdAt,value
2019-01-13T00:00:26.603Z,93.00
2019-01-13T00:01:32.704Z,92.90
2019-01-13T00:02:37.193Z,93.00
2019-01-13T00:03:41.694Z,93.10
2019-01-13T00:04:46.298Z,93.10
2019-01-13T00:05:50.945Z,93.10
2019-01-13T00:06:55.679Z,92.90
2019-01-13T00:08:00.336Z,93.10
2019-01-13T00:09:06.842Z,93.00
2019-01-13T00:10:11.543Z,93.00
2019-01-13T00:11:16.230Z,92.90
2019-01-13T00:12:20.850Z,92.90
2019-01-13T00:13:25.568Z,93.00
2019-01-13T00:14:30.097Z,93.00
2019-01-13T00:15:34.656Z,93.30
2019-01-13T00:16:39.164Z,93.00
2019-01-13T00:17:43.634Z,93.00
2019-01-13T00:18:48.165Z,93.10
2019-01-13T00:19:52.796Z,93.20
2019-01-13T00:20:57.283Z,93.20
2019-01-13T00:22:01.821Z,93.10
2019-01-13T00:23:06.363Z,93.20
2019-01-13T00:24:10.916Z,93.10
2019-01-13T00:25:15.377Z,93.10
2019-01-13T00:26:19.851Z,93.10
2019-01-13T00:27:24.365Z,93.00
2019-01-13T00:28:28.830Z,92.80
2019-01-13T00:29:33.386Z,92.90
2019-01-13T00:30:37.993Z,93.10
2019-01-13T00:31:42.469Z,93.10
2019-01-13T00:32:47.040Z,93.10
2019-01-13T00:33:51.519Z,93.20
2019-01-13T00:34:56.000Z,93.10
2019-01-13T00:36:00.507Z,93.00
2019-01-13T00:37:05.115Z,93.10
2019-01-13T00:38:09.650Z,93.20
2019-01-13T00:39:14.194Z,93.20
2019-01-13T00:40:19.800Z,93.20
2019-01-13T00:41:24.436Z,93.20
2019-01-13T00:42:28.940Z,93.10
2019-01-13T00:43:33.441Z,93.10
2019-01-13T00:44:37.921Z,93.10
2019-01-13T00:45:42.436Z,93.00
2019-01-13T00:46:46.903Z,93.10
2019-01-13T00:47:51.567Z,93.10
2019-01-13T00:48:56.132Z,93.10
2019-01-13T00:50:00.821Z,93.00
2019-01-13T00:51:05.386Z,93.10
2019-01-13T00:52:09.881Z,93.20
2019-01-13T00:53:14.358Z,93.10
2019-01-13T00:54:18.874Z,93.10
2019-01-13T00:55:23.376Z,93.10
2019-01-13T00:56:27.919Z,93.00
2019-01-13T00:57:32.381Z,93.10
2019-01-13T00:58:36.952Z,93.10
2019-01-13T00:59:41.441Z,93.10
2019-01-13T01:00:46.011Z,92.80
2019-01-13T01:01:52.184Z,93.00
2019-01-13T01:02:58.274Z,93.00
2019-01-13T01:04:02.737Z,93.00
2019-01-13T01:05:09.254Z,93.00
2019-01-13T01:06:13.923Z,93.10
2019-01-13T01:07:18.472Z,93.10
2019-01-13T01:08:23.066Z,93.10
2019-01-13T01:09:27.682Z,93.00
2019-01-13T01:10:32.253Z,93.10
2019-01-13T01:11:36.786Z,93.10
2019-01-13T01:12:41.274Z,93.20
2019-01-13T01:13:45.789Z,93.20
2019-01-13T01:14:50.274Z,93.20
2019-01-13T01:15:54.757Z,93.10
2019-01-13T01:16:59.244Z,93.20
2019-01-13T01:18:03.790Z,93.10
2019-01-13T01:19:08.280Z,93.20
2019-01-13T01:20:14.894Z,93.10
2019-01-13T01:21:19.397Z,93.20
2019-01-13T01:22:23.909Z,93.30
2019-01-13T01:23:28.441Z,93.10
2019-01-13T01:24:32.905Z,93.30
2019-01-13T01:25:37.401Z,93.30
2019-01-13T01:26:41.854Z,93.40
2019-01-13T01:27:46.483Z,93.40
2019-01-13T01:28:51.145Z,93.40
2019-01-13T01:29:55.615Z,93.40
2019-01-13T01:31:00.094Z,93.10
2019-01-13T01:32:04.651Z,93.30
2019-01-13T01:33:09.315Z,93.20
2019-01-13T01:34:13.937Z,93.20
2019-01-13T01:35:18.537Z,93.10
2019-01-13T01:36:23.047Z,93.30
2019-01-13T01:37:27.530Z,93.30
2019-01-13T01:38:32.083Z,93.30
2019-01-13T01:39:36.782Z,93.30
2019-01-13T01:40:41.343Z,93.30
2019-01-13T01:41:45.832Z,93.20
2019-01-13T01:42:50.372Z,93.30
2019-01-13T01:43:54.877Z,93.30
2019-01-13T01:44:59.365Z,93.30
2019-01-13T01:46:03.892Z,93.30
2019-01-13T01:47:08.372Z,93.30
2019-01-13T01:48:12.912Z,93.20
2019-01-13T01:49:17.416Z,93.00
2019-01-13T01:50:21.951Z,93.00
2019-01-13T01:51:26.517Z,92.90
2019-01-13T01:52:31.019Z,93.10
2019-01-13T01:53:35.569Z,92.90
2019-01-13T01:54:40.179Z,93.00
2019-01-13T01:55:44.744Z,93.00
2019-01-13T01:56:49.243Z,93.10
2019-01-13T01:57:53.748Z,93.00
2019-01-13T01:58:58.253Z,93.00
2019-01-13T02:00:03.079Z,93.00
2019-01-13T02:01:07.638Z,93.00
2019-01-13T02:02:12.183Z,93.10
2019-01-13T02:03:16.708Z,93.10
2019-01-13T02:04:21.192Z,93.00
2019-01-13T02:05:25.706Z,92.70
2019-01-13T02:06:30.171Z,92.90
2019-01-13T02:07:35.291Z,93.00
2019-01-13T02:08:39.758Z,92.90
2019-01-13T02:09:44.250Z,93.00
2019-01-13T02:10:48.816Z,92.90
2019-01-13T02:11:53.300Z,93.00
2019-01-13T02:12:57.784Z,93.00
2019-01-13T02:14:02.255Z,93.20
2019-01-13T02:15:09.837Z,93.20
2019-01-13T02:16:14.363Z,93.30
2019-01-13T02:17:18.910Z,93.30
2019-01-13T02:18:23.387Z,93.30
2019-01-13T02:19:27.850Z,93.20
2019-01-13T02:20:33.321Z,93.20
2019-01-13T02:21:37.814Z,93.10
2019-01-13T02:22:42.431Z,93.00
2019-01-13T02:23:46.971Z,93.10
2019-01-13T02:24:51.605Z,93.20
2019-01-13T02:25:56.188Z,93.20
2019-01-13T02:27:00.693Z,93.20
2019-01-13T02:28:05.140Z,93.20
2019-01-13T02:29:09.641Z,93.30
2019-01-13T02:30:16.944Z,93.30
2019-01-13T02:31:21.437Z,93.40
2019-01-13T02:32:25.902Z,93.30
2019-01-13T02:33:30.386Z,93.40
2019-01-13T02:34:34.859Z,93.20
2019-01-13T02:35:39.330Z,93.30
2019-01-13T02:36:43.793Z,93.10
2019-01-13T02:37:48.402Z,93.20
2019-01-13T02:38:52.896Z,93.10
2019-01-13T02:39:57.740Z,93.20
2019-01-13T02:41:02.220Z,93.30
2019-01-13T02:42:06.705Z,93.20
2019-01-13T02:43:11.197Z,92.90
2019-01-13T02:44:15.718Z,93.10
2019-01-13T02:45:27.337Z,93.10
2019-01-13T02:46:31.833Z,93.20
2019-01-13T02:47:42.291Z,93.30
2019-01-13T02:49:04.879Z,93.30
2019-01-13T02:50:27.476Z,93.10
2019-01-13T02:51:31.962Z,93.20
2019-01-13T02:52:36.435Z,93.10
2019-01-13T02:53:40.910Z,93.10
2019-01-13T02:54:45.461Z,93.20
2019-01-13T02:55:50.021Z,93.10
2019-01-13T02:56:54.478Z,92.90
2019-01-13T02:57:58.969Z,93.10
2019-01-13T02:59:03.497Z,93.20
2019-01-13T03:00:16.500Z,93.30
2019-01-13T03:01:20.978Z,93.20
2019-01-13T03:02:25.441Z,93.20
2019-01-13T03:03:29.954Z,93.50
2019-01-13T03:04:34.603Z,93.10
2019-01-13T03:05:39.130Z,93.10
2019-01-13T03:06:43.651Z,93.10
2019-01-13T03:07:48.185Z,93.20
2019-01-13T03:08:52.648Z,93.30
2019-01-13T03:09:57.469Z,93.30
2019-01-13T03:11:01.934Z,93.30
2019-01-13T03:12:06.459Z,93.20
2019-01-13T03:13:11.010Z,93.10
2019-01-13T03:14:15.514Z,93.10
2019-01-13T03:15:21.962Z,93.20
2019-01-13T03:16:26.468Z,93.20
2019-01-13T03:17:30.942Z,93.10
2019-01-13T03:18:35.436Z,93.10
2019-01-13T03:19:39.894Z,93.20
2019-01-13T03:20:44.474Z,93.20
2019-01-13T03:21:48.943Z,93.00
2019-01-13T03:22:53.463Z,93.10
2019-01-13T03:23:57.930Z,93.00
2019-01-13T03:25:02.427Z,93.10
2019-01-13T03:26:07.031Z,92.90
2019-01-13T03:27:11.576Z,93.00
2019-01-13T03:28:17.262Z,92.90
2019-01-13T03:29:23.128Z,92.80
2019-01-13T03:30:27.598Z,93.00
2019-01-13T03:31:32.064Z,93.20
2019-01-13T03:32:36.560Z,93.20
2019-01-13T03:33:41.054Z,93.30
2019-01-13T03:34:45.520Z,93.20
2019-01-13T03:35:50.003Z,93.20
2019-01-13T03:36:54.475Z,93.00
2019-01-13T03:37:58.951Z,93.10
2019-01-13T03:39:05.001Z,93.20
2019-01-13T03:40:13.011Z,93.00
2019-01-13T03:41:17.515Z,93.00
2019-01-13T03:42:21.991Z,93.10
2019-01-13T03:43:27.356Z,93.10
2019-01-13T03:44:31.866Z,93.10
2019-01-13T03:45:36.329Z,93.10
2019-01-13T03:46:40.898Z,93.00
2019-01-13T03:47:45.449Z,92.90
2019-01-13T03:48:49.946Z,92.70
2019-01-13T03:49:56.004Z,92.70
2019-01-13T03:51:00.515Z,92.50
2019-01-13T03:52:05.312Z,92.30
2019-01-13T03:53:09.762Z,92.40
2019-01-13T03:54:14.243Z,92.20
2019-01-13T03:55:21.389Z,92.20
2019-01-13T03:56:25.882Z,92.30
2019-01-13T03:57:30.421Z,92.40
2019-01-13T03:58:34.908Z,92.50
2019-01-13T03:59:39.446Z,92.60
2019-01-13T04:00:43.924Z,92.70
2019-01-13T04:01:48.447Z,92.80
2019-01-13T04:02:53.065Z,92.90
2019-01-13T04:03:57.521Z,92.90
2019-01-13T04:05:02.075Z,92.90
2019-01-13T04:06:06.546Z,93.00
2019-01-13T04:07:11.116Z,92.90
2019-01-13T04:08:15.609Z,93.00
2019-01-13T04:09:20.088Z,93.10
2019-01-13T04:10:24.625Z,93.10
2019-01-13T04:11:29.192Z,93.20
2019-01-13T04:12:33.754Z,93.20
2019-01-13T04:13:38.231Z,93.30
2019-01-13T04:14:42.707Z,93.40
2019-01-13T04:15:47.184Z,93.40
2019-01-13T04:16:51.680Z,93.40
2019-01-13T04:17:57.035Z,93.50
2019-01-13T04:19:01.514Z,93.60
2019-01-13T04:20:06.413Z,93.70
2019-01-13T04:21:10.916Z,93.70
2019-01-13T04:22:15.436Z,93.70
2019-01-13T04:23:20.218Z,93.70
2019-01-13T04:24:24.687Z,93.60
2019-01-13T04:25:29.218Z,93.50
2019-01-13T04:26:33.708Z,93.40
2019-01-13T04:27:38.157Z,93.40
2019-01-13T04:28:42.663Z,93.40
2019-01-13T04:29:47.391Z,93.40
2019-01-13T04:30:51.872Z,93.50
2019-01-13T04:31:56.372Z,93.60
2019-01-13T04:33:00.845Z,93.60
2019-01-13T04:34:05.347Z,93.30
2019-01-13T04:35:10.005Z,93.20
2019-01-13T04:36:14.665Z,93.40
2019-01-13T04:37:19.132Z,93.30
2019-01-13T04:38:23.743Z,93.50
2019-01-13T04:39:28.223Z,93.50
2019-01-13T04:40:32.729Z,93.40
2019-01-13T04:41:37.209Z,93.50
2019-01-13T04:42:41.697Z,93.50
2019-01-13T04:43:46.170Z,93.50
2019-01-13T04:44:50.657Z,93.50
2019-01-13T04:45:55.139Z,93.40
2019-01-13T04:46:59.874Z,92.80
2019-01-13T04:48:04.444Z,92.80
2019-01-13T04:49:08.909Z,93.10
2019-01-13T04:50:14.927Z,93.20
2019-01-13T04:51:19.385Z,93.30
2019-01-13T04:52:23.890Z,93.30
2019-01-13T04:53:28.385Z,93.20
2019-01-13T04:54:32.868Z,93.40
2019-01-13T04:55:37.365Z,93.50
2019-01-13T04:56:41.853Z,93.50
2019-01-13T04:57:46.335Z,93.50
2019-01-13T04:58:51.283Z,93.40
2019-01-13T04:59:55.774Z,93.30
2019-01-13T05:01:00.317Z,93.30
2019-01-13T05:02:05.150Z,93.40
2019-01-13T05:03:09.651Z,93.30
2019-01-13T05:04:14.129Z,93.20
2019-01-13T05:05:18.729Z,93.20
2019-01-13T05:06:23.201Z,93.30
2019-01-13T05:07:27.675Z,93.20
2019-01-13T05:08:32.183Z,93.10
2019-01-13T05:09:36.691Z,93.20
2019-01-13T05:10:41.441Z,93.30
2019-01-13T05:11:45.911Z,93.30
2019-01-13T05:12:50.387Z,93.30
2019-01-13T05:13:55.100Z,93.20
2019-01-13T05:14:59.609Z,93.30
2019-01-13T05:16:04.248Z,93.20
2019-01-13T05:17:08.718Z,93.20
2019-01-13T05:18:13.210Z,93.20
2019-01-13T05:19:17.681Z,93.10
2019-01-13T05:20:22.277Z,93.20
2019-01-13T05:21:26.738Z,93.10
2019-01-13T05:22:31.324Z,93.10
2019-01-13T05:23:35.864Z,93.20
2019-01-13T05:24:40.353Z,93.20
2019-01-13T05:25:44.875Z,93.20
2019-01-13T05:26:49.346Z,93.30
2019-01-13T05:27:53.955Z,93.20
2019-01-13T05:28:58.652Z,93.20
2019-01-13T05:30:04.789Z,93.20
2019-01-13T05:31:09.282Z,93.20
2019-01-13T05:32:13.776Z,93.10
2019-01-13T05:33:18.243Z,93.00
2019-01-13T05:34:22.740Z,93.00
2019-01-13T05:35:27.293Z,93.10
2019-01-13T05:36:31.789Z,93.00
2019-01-13T05:37:36.336Z,93.10
2019-01-13T05:38:40.844Z,93.20
2019-01-13T05:39:45.315Z,93.20
2019-01-13T05:40:49.805Z,92.90
2019-01-13T05:41:54.298Z,93.10
2019-01-13T05:42:58.771Z,93.10
2019-01-13T05:44:03.339Z,93.40
2019-01-13T05:45:10.824Z,93.00
2019-01-13T05:46:15.357Z,92.90
2019-01-13T05:47:19.848Z,92.80
2019-01-13T05:48:24.381Z,92.90
2019-01-13T05:49:28.872Z,92.70
2019-01-13T05:50:33.339Z,92.70
2019-01-13T05:51:37.836Z,92.90
2019-01-13T05:52:43.146Z,92.80
2019-01-13T05:53:47.657Z,92.80
2019-01-13T05:54:52.145Z,92.90
2019-01-13T05:55:56.616Z,92.80
2019-01-13T05:57:01.102Z,92.90
2019-01-13T05:58:05.591Z,92.70
2019-01-13T05:59:10.061Z,92.80
2019-01-13T06:00:22.966Z,92.80
2019-01-13T06:01:27.480Z,92.80
2019-01-13T06:02:31.961Z,92.50
2019-01-13T06:03:36.462Z,92.60
2019-01-13T06:04:40.942Z,92.60
2019-01-13T06:05:45.585Z,92.60
2019-01-13T06:06:50.125Z,92.70
2019-01-13T06:07:54.581Z,92.60
2019-01-13T06:08:59.344Z,92.60
2019-01-13T06:10:06.719Z,92.70
2019-01-13T06:11:11.209Z,92.90
2019-01-13T06:12:15.657Z,92.50
2019-01-13T06:13:20.139Z,92.70
2019-01-13T06:14:24.670Z,92.80
2019-01-13T06:15:29.153Z,92.60
2019-01-13T06:16:33.629Z,92.60
2019-01-13T06:17:38.116Z,92.80
2019-01-13T06:18:42.595Z,92.90
2019-01-13T06:19:47.120Z,92.70
2019-01-13T06:20:51.586Z,92.70
2019-01-13T06:21:56.116Z,92.70
2019-01-13T06:23:00.603Z,92.90
2019-01-13T06:24:05.093Z,92.80
2019-01-13T06:25:09.931Z,92.80
2019-01-13T06:26:14.551Z,92.70
2019-01-13T06:27:19.142Z,92.60
2019-01-13T06:28:23.647Z,92.70
2019-01-13T06:29:28.172Z,92.70
2019-01-13T06:30:32.903Z,92.80
2019-01-13T06:31:37.407Z,92.80
2019-01-13T06:32:41.893Z,92.70
2019-01-13T06:33:46.375Z,92.80
2019-01-13T06:34:50.883Z,92.80
2019-01-13T06:35:55.460Z,92.50
2019-01-13T06:36:59.989Z,92.70
2019-01-13T06:38:04.473Z,92.50
2019-01-13T06:39:09.156Z,92.40
2019-01-13T06:40:15.556Z,92.70
2019-01-13T06:41:20.053Z,92.70
2019-01-13T06:42:24.532Z,92.80
2019-01-13T06:43:29.046Z,92.70
2019-01-13T06:44:33.529Z,92.80
2019-01-13T06:45:38.067Z,92.80
2019-01-13T06:46:42.560Z,92.50
2019-01-13T06:47:47.051Z,92.40
2019-01-13T06:48:51.632Z,92.50
2019-01-13T06:49:56.148Z,92.20
2019-01-13T06:51:00.948Z,92.60
2019-01-13T06:52:05.496Z,92.60
2019-01-13T06:53:10.060Z,92.70
2019-01-13T06:54:14.548Z,92.60
2019-01-13T06:55:19.084Z,92.70
2019-01-13T06:56:23.655Z,92.70
2019-01-13T06:57:28.130Z,92.80
2019-01-13T06:58:32.603Z,92.80
2019-01-13T06:59:37.083Z,92.80
2019-01-13T07:00:41.622Z,92.80
2019-01-13T07:01:46.094Z,92.80
2019-01-13T07:02:50.711Z,92.80
2019-01-13T07:03:55.179Z,92.70
2019-01-13T07:04:59.656Z,92.70
2019-01-13T07:06:04.422Z,92.50
2019-01-13T07:07:08.955Z,92.70
2019-01-13T07:08:13.638Z,92.70
2019-01-13T07:09:18.217Z,92.40
2019-01-13T07:10:23.335Z,92.60
2019-01-13T07:11:28.141Z,92.50
2019-01-13T07:12:32.615Z,92.60
2019-01-13T07:13:37.270Z,92.30
2019-01-13T07:14:41.842Z,92.40
2019-01-13T07:15:46.304Z,92.50
2019-01-13T07:16:50.859Z,92.60
2019-01-13T07:17:55.447Z,92.60
2019-01-13T07:18:59.981Z,92.70
2019-01-13T07:20:07.529Z,92.60
2019-01-13T07:21:12.036Z,92.60
2019-01-13T07:22:16.609Z,92.50
2019-01-13T07:23:21.181Z,92.60
2019-01-13T07:24:25.902Z,92.50
2019-01-13T07:25:30.522Z,92.60
2019-01-13T07:26:35.076Z,92.70
2019-01-13T07:27:39.628Z,92.70
2019-01-13T07:28:44.264Z,92.70
2019-01-13T07:29:48.823Z,92.60
2019-01-13T07:30:53.427Z,92.50
2019-01-13T07:31:57.946Z,92.60
2019-01-13T07:33:02.441Z,92.80
2019-01-13T07:34:06.942Z,92.70
2019-01-13T07:35:11.506Z,92.60
2019-01-13T07:36:15.979Z,92.60
2019-01-13T07:37:20.681Z,92.50
2019-01-13T07:38:25.170Z,92.30
2019-01-13T07:39:29.737Z,92.40
2019-01-13T07:40:34.285Z,92.50
2019-01-13T07:41:38.765Z,92.40
2019-01-13T07:42:43.470Z,92.40
2019-01-13T07:43:47.995Z,92.10
2019-01-13T07:44:52.599Z,92.20
2019-01-13T07:45:57.564Z,92.30
2019-01-13T07:47:02.026Z,92.40
2019-01-13T07:48:06.518Z,92.50
2019-01-13T07:49:10.973Z,92.40
2019-01-13T07:50:17.208Z,92.30
2019-01-13T07:51:21.689Z,92.50
2019-01-13T07:52:26.169Z,92.60
2019-01-13T07:53:30.662Z,92.70
2019-01-13T07:54:35.135Z,92.60
2019-01-13T07:55:41.236Z,92.50
2019-01-13T07:56:45.749Z,92.40
2019-01-13T07:57:50.291Z,92.30
2019-01-13T07:58:54.790Z,92.40
2019-01-13T07:59:59.263Z,92.50
2019-01-13T08:01:05.083Z,92.50
2019-01-13T08:02:09.727Z,92.40
2019-01-13T08:03:14.231Z,92.50
2019-01-13T08:04:18.708Z,92.40
2019-01-13T08:05:23.906Z,92.40
2019-01-13T08:06:28.401Z,92.30
2019-01-13T08:07:32.898Z,92.50
2019-01-13T08:08:37.406Z,92.60
2019-01-13T08:09:42.351Z,92.60
2019-01-13T08:10:46.828Z,92.70
2019-01-13T08:11:51.319Z,92.60
2019-01-13T08:12:55.865Z,92.50
2019-01-13T08:14:00.360Z,92.40
2019-01-13T08:15:08.261Z,92.30
2019-01-13T08:16:12.734Z,92.50
2019-01-13T08:17:17.237Z,92.50
2019-01-13T08:18:21.866Z,92.70
2019-01-13T08:19:26.331Z,92.50
2019-01-13T08:20:31.748Z,92.60
2019-01-13T08:21:36.242Z,92.40
2019-01-13T08:22:40.725Z,92.60
2019-01-13T08:23:45.217Z,92.60
2019-01-13T08:24:49.801Z,92.40
2019-01-13T08:25:54.283Z,92.60
2019-01-13T08:26:58.776Z,92.60
2019-01-13T08:28:03.295Z,92.40
2019-01-13T08:29:07.818Z,92.30
2019-01-13T08:30:17.435Z,92.60
2019-01-13T08:31:21.911Z,92.60
2019-01-13T08:32:26.505Z,92.50
2019-01-13T08:33:31.027Z,92.50
2019-01-13T08:34:35.595Z,92.70
2019-01-13T08:35:40.186Z,92.70
2019-01-13T08:36:44.703Z,92.60
2019-01-13T08:37:49.259Z,92.60
2019-01-13T08:38:53.839Z,92.70
2019-01-13T08:39:58.311Z,92.70
2019-01-13T08:41:02.808Z,92.70
2019-01-13T08:42:07.532Z,92.70
2019-01-13T08:43:12.070Z,92.70
2019-01-13T08:44:16.598Z,92.80
2019-01-13T08:45:21.210Z,92.50
2019-01-13T08:46:25.728Z,92.70
2019-01-13T08:47:30.337Z,92.70
2019-01-13T08:48:34.794Z,92.80
2019-01-13T08:49:39.415Z,92.70
2019-01-13T08:50:43.972Z,92.80
2019-01-13T08:51:48.469Z,92.60
2019-01-13T08:52:53.186Z,92.10
2019-01-13T08:53:57.667Z,92.10
2019-01-13T08:55:02.409Z,92.60
2019-01-13T08:56:07.001Z,92.50
2019-01-13T08:57:11.473Z,92.20
2019-01-13T08:58:15.943Z,92.40
2019-01-13T08:59:20.422Z,92.10
2019-01-13T09:00:27.235Z,92.20
2019-01-13T09:01:31.720Z,92.30
2019-01-13T09:02:36.271Z,92.30
2019-01-13T09:03:40.866Z,92.30
2019-01-13T09:04:45.341Z,92.20
2019-01-13T09:05:49.850Z,92.30
2019-01-13T09:06:54.332Z,92.30
2019-01-13T09:07:58.853Z,92.10
2019-01-13T09:09:06.513Z,92.10
2019-01-13T09:10:16.666Z,91.90
2019-01-13T09:11:21.158Z,92.30
2019-01-13T09:12:25.703Z,92.10
2019-01-13T09:13:30.208Z,92.20
2019-01-13T09:14:34.683Z,91.90
2019-01-13T09:15:39.164Z,92.10
2019-01-13T09:16:43.644Z,92.00
2019-01-13T09:17:48.571Z,92.20
2019-01-13T09:18:53.137Z,92.30
2019-01-13T09:19:57.692Z,92.20
2019-01-13T09:21:02.254Z,92.20
2019-01-13T09:22:07.527Z,92.20
2019-01-13T09:23:12.302Z,92.20
2019-01-13T09:24:16.819Z,92.30
2019-01-13T09:25:21.442Z,91.60
2019-01-13T09:26:26.002Z,92.10
2019-01-13T09:27:30.559Z,92.30
2019-01-13T09:28:35.163Z,92.20
2019-01-13T09:29:42.555Z,92.30
2019-01-13T09:30:45.869Z,92.20
2019-01-13T09:31:50.343Z,92.40
2019-01-13T09:32:54.881Z,92.10
2019-01-13T09:33:59.381Z,91.90
2019-01-13T09:35:04.901Z,91.90
2019-01-13T09:36:09.411Z,92.10
2019-01-13T09:37:13.939Z,92.20
2019-01-13T09:38:18.505Z,92.30
2019-01-13T09:39:22.983Z,92.00
2019-01-13T09:40:29.119Z,92.10
2019-01-13T09:41:33.587Z,92.00
2019-01-13T09:42:38.068Z,92.20
2019-01-13T09:43:42.544Z,91.80
2019-01-13T09:44:47.030Z,91.60
2019-01-13T09:45:51.578Z,91.90
2019-01-13T09:46:56.050Z,92.00
2019-01-13T09:48:00.628Z,92.00
2019-01-13T09:49:05.125Z,92.10
2019-01-13T09:50:12.762Z,91.80
2019-01-13T09:51:17.232Z,91.80
2019-01-13T09:52:21.729Z,91.60
2019-01-13T09:53:26.267Z,91.60
2019-01-13T09:54:30.794Z,91.40
2019-01-13T09:55:35.279Z,91.40
2019-01-13T09:56:39.773Z,91.50
2019-01-13T09:57:44.390Z,91.20
2019-01-13T09:58:49.254Z,91.70
2019-01-13T09:59:53.749Z,91.60
2019-01-13T10:00:58.250Z,91.60
2019-01-13T10:02:02.976Z,91.30
2019-01-13T10:03:08.166Z,91.60
2019-01-13T10:04:12.712Z,91.60
2019-01-13T10:05:17.449Z,91.90
2019-01-13T10:06:21.973Z,92.10
2019-01-13T10:07:26.536Z,92.00
2019-01-13T10:08:31.015Z,91.40
2019-01-13T10:09:35.487Z,91.50
2019-01-13T10:10:39.965Z,91.70
2019-01-13T10:11:44.552Z,91.20
2019-01-13T10:12:49.032Z,91.40
2019-01-13T10:13:53.633Z,91.20
2019-01-13T10:14:58.209Z,90.70
2019-01-13T10:16:02.720Z,90.90
2019-01-13T10:17:07.258Z,90.70
2019-01-13T10:18:11.801Z,91.20
2019-01-13T10:19:16.295Z,91.10
2019-01-13T10:20:20.827Z,90.80
2019-01-13T10:21:25.298Z,90.90
2019-01-13T10:22:29.974Z,90.90
2019-01-13T10:23:34.659Z,91.10
2019-01-13T10:24:39.228Z,91.10
2019-01-13T10:25:43.782Z,91.10
2019-01-13T10:26:48.346Z,90.80
2019-01-13T10:27:52.961Z,91.30
2019-01-13T10:28:57.433Z,91.40
2019-01-13T10:30:01.940Z,91.60
2019-01-13T10:31:06.579Z,91.60
2019-01-13T10:32:11.124Z,91.20
2019-01-13T10:33:15.627Z,90.90
2019-01-13T10:34:20.107Z,91.30
2019-01-13T10:35:24.950Z,91.50
2019-01-13T10:36:29.463Z,91.20
2019-01-13T10:37:33.955Z,91.20
2019-01-13T10:38:38.451Z,91.50
2019-01-13T10:39:42.944Z,91.30
2019-01-13T10:40:47.538Z,90.70
2019-01-13T10:41:52.031Z,91.30
2019-01-13T10:42:57.173Z,91.40
2019-01-13T10:44:01.714Z,91.40
2019-01-13T10:45:09.416Z,91.20
2019-01-13T10:46:13.891Z,91.20
2019-01-13T10:47:18.825Z,90.90
2019-01-13T10:48:23.312Z,90.90
2019-01-13T10:49:27.817Z,90.90
2019-01-13T10:50:32.644Z,91.40
2019-01-13T10:51:37.110Z,91.30
2019-01-13T10:52:41.829Z,91.30
2019-01-13T10:53:46.361Z,91.40
2019-01-13T10:54:50.908Z,91.40
2019-01-13T10:55:55.665Z,91.40
2019-01-13T10:57:00.211Z,91.20
2019-01-13T10:58:04.931Z,91.20
2019-01-13T10:59:09.400Z,91.30
2019-01-13T11:00:25.620Z,91.40
2019-01-13T11:01:30.194Z,91.30
2019-01-13T11:02:34.672Z,91.50
2019-01-13T11:03:39.182Z,91.30
2019-01-13T11:04:43.715Z,91.40
2019-01-13T11:05:48.212Z,91.50
2019-01-13T11:06:52.717Z,91.60
2019-01-13T11:07:58.082Z,91.50
2019-01-13T11:09:04.387Z,91.40
2019-01-13T11:10:14.256Z,91.40
2019-01-13T11:11:18.824Z,91.50
2019-01-13T11:12:23.305Z,91.60
2019-01-13T11:13:27.813Z,91.50
2019-01-13T11:14:32.299Z,91.50
2019-01-13T11:15:36.773Z,91.50
2019-01-13T11:16:41.259Z,91.40
2019-01-13T11:17:46.081Z,91.50
2019-01-13T11:18:50.645Z,91.50
2019-01-13T11:19:55.567Z,91.60
2019-01-13T11:21:00.087Z,91.60
2019-01-13T11:22:04.817Z,91.80
2019-01-13T11:23:09.305Z,91.70
2019-01-13T11:24:13.815Z,91.70
2019-01-13T11:25:18.417Z,91.80
2019-01-13T11:26:22.891Z,92.00
2019-01-13T11:27:27.387Z,92.00
2019-01-13T11:28:31.931Z,92.10
2019-01-13T11:29:36.521Z,91.90
2019-01-13T11:30:41.010Z,92.10
2019-01-13T11:31:45.484Z,92.20
2019-01-13T11:32:49.978Z,91.90
2019-01-13T11:33:54.450Z,91.80
2019-01-13T11:34:58.963Z,91.70
2019-01-13T11:36:03.687Z,91.90
2019-01-13T11:37:08.176Z,92.00
2019-01-13T11:38:12.743Z,91.80
2019-01-13T11:39:17.235Z,91.90
2019-01-13T11:40:26.670Z,91.80
2019-01-13T11:41:31.292Z,92.00
2019-01-13T11:42:35.798Z,91.90
2019-01-13T11:43:40.308Z,91.90
2019-01-13T11:44:44.873Z,92.10
2019-01-13T11:45:49.530Z,92.10
2019-01-13T11:46:54.082Z,92.30
2019-01-13T11:47:58.559Z,92.40
2019-01-13T11:49:03.039Z,92.50
2019-01-13T11:50:18.869Z,92.50
2019-01-13T11:51:23.367Z,92.40
2019-01-13T11:52:27.839Z,92.40
2019-01-13T11:53:32.313Z,92.60
2019-01-13T11:54:36.798Z,92.70
2019-01-13T11:55:41.305Z,92.50
2019-01-13T11:56:45.792Z,92.50
2019-01-13T11:57:50.619Z,92.30
2019-01-13T11:58:55.317Z,92.40
2019-01-13T11:59:59.807Z,92.50
2019-01-13T12:01:04.822Z,92.60
2019-01-13T12:02:09.304Z,92.40
2019-01-13T12:03:16.982Z,92.20
2019-01-13T12:04:20.400Z,92.30
2019-01-13T12:05:24.887Z,92.30
2019-01-13T12:06:29.396Z,92.20
2019-01-13T12:07:33.870Z,92.40
2019-01-13T12:08:38.575Z,92.40
2019-01-13T12:09:43.264Z,92.40
2019-01-13T12:10:47.794Z,92.40
2019-01-13T12:11:52.435Z,92.50
2019-01-13T12:12:57.062Z,92.00
2019-01-13T12:14:01.663Z,92.30
2019-01-13T12:15:11.378Z,92.40
2019-01-13T12:16:15.924Z,92.40
2019-01-13T12:17:20.423Z,92.40
2019-01-13T12:18:24.881Z,92.40
2019-01-13T12:19:29.377Z,92.50
2019-01-13T12:20:34.209Z,92.50
2019-01-13T12:21:38.667Z,92.50
2019-01-13T12:22:43.222Z,92.60
2019-01-13T12:23:47.699Z,92.20
2019-01-13T12:24:52.202Z,92.30
2019-01-13T12:25:56.688Z,92.60
2019-01-13T12:27:01.184Z,92.50
2019-01-13T12:28:05.713Z,92.50
2019-01-13T12:29:10.204Z,92.80
2019-01-13T12:30:17.834Z,92.30
2019-01-13T12:31:22.303Z,92.50
2019-01-13T12:32:26.811Z,92.60
2019-01-13T12:33:31.263Z,92.70
2019-01-13T12:34:35.748Z,92.80
2019-01-13T12:35:40.221Z,92.80
2019-01-13T12:36:44.723Z,92.80
2019-01-13T12:37:49.177Z,92.90
2019-01-13T12:38:53.667Z,92.80
2019-01-13T12:39:58.212Z,92.80
2019-01-13T12:41:02.716Z,92.70
2019-01-13T12:42:07.481Z,92.80
2019-01-13T12:43:12.133Z,92.80
2019-01-13T12:44:16.609Z,92.40
2019-01-13T12:45:23.320Z,92.80
2019-01-13T12:46:27.931Z,92.90
2019-01-13T12:47:32.502Z,93.00
2019-01-13T12:48:37.089Z,93.00
2019-01-13T12:49:41.697Z,92.80
2019-01-13T12:50:46.227Z,92.90
2019-01-13T12:51:50.738Z,93.00
2019-01-13T12:52:55.319Z,92.90
2019-01-13T12:53:59.797Z,92.90
2019-01-13T12:55:05.520Z,92.90
2019-01-13T12:56:10.011Z,92.90
2019-01-13T12:57:14.493Z,93.20
2019-01-13T12:58:18.998Z,93.10
2019-01-13T12:59:23.550Z,93.10
2019-01-13T13:00:28.103Z,93.10
2019-01-13T13:01:32.601Z,93.20
2019-01-13T13:02:37.101Z,93.10
2019-01-13T13:03:41.580Z,93.30
2019-01-13T13:04:46.070Z,93.20
2019-01-13T13:05:50.772Z,93.30
2019-01-13T13:06:55.307Z,93.20
2019-01-13T13:07:59.853Z,93.20
2019-01-13T13:09:08.339Z,93.00
2019-01-13T13:10:30.762Z,93.10
2019-01-13T13:11:35.327Z,93.10
2019-01-13T13:12:39.811Z,93.10
2019-01-13T13:13:44.372Z,93.20
2019-01-13T13:14:49.065Z,93.30
2019-01-13T13:15:53.626Z,93.30
2019-01-13T13:16:58.171Z,93.20
2019-01-13T13:18:02.749Z,93.20
2019-01-13T13:19:07.243Z,93.10
2019-01-13T13:20:14.647Z,93.20
2019-01-13T13:21:19.208Z,93.20
2019-01-13T13:22:23.711Z,93.30
2019-01-13T13:23:28.215Z,93.30
2019-01-13T13:24:32.871Z,93.20
2019-01-13T13:25:37.506Z,93.10
2019-01-13T13:26:42.013Z,93.30
2019-01-13T13:27:46.847Z,93.10
2019-01-13T13:28:51.921Z,93.10
2019-01-13T13:29:56.471Z,93.40
2019-01-13T13:31:00.983Z,93.10
2019-01-13T13:32:05.515Z,92.60
2019-01-13T13:33:10.089Z,93.10
2019-01-13T13:34:14.598Z,93.30
2019-01-13T13:35:19.819Z,93.20
2019-01-13T13:36:24.418Z,93.10
2019-01-13T13:37:29.075Z,93.10
2019-01-13T13:38:33.578Z,93.20
2019-01-13T13:39:38.065Z,93.10
2019-01-13T13:40:42.713Z,93.20
2019-01-13T13:41:47.220Z,93.20
2019-01-13T13:42:51.808Z,93.30
2019-01-13T13:43:56.444Z,93.20
2019-01-13T13:45:00.920Z,93.10
2019-01-13T13:46:05.583Z,93.30
2019-01-13T13:47:10.182Z,93.20
2019-01-13T13:48:14.666Z,93.20
2019-01-13T13:49:19.430Z,93.20
2019-01-13T13:50:26.006Z,93.30
2019-01-13T13:51:30.739Z,93.20
2019-01-13T13:52:35.309Z,93.30
2019-01-13T13:53:39.849Z,93.30
2019-01-13T13:54:44.331Z,93.50